createdAt,value
2023-03-12T00:01:34.500Z,5.19
2023-03-12T00:04:03.416Z,5.18
2023-03-12T00:06:31.619Z,5.30
2023-03-12T00:09:01.984Z,4.62
2023-03-12T00:11:29.811Z,4.61
2023-03-12T00:14:00.143Z,4.83
2023-03-12T00:16:28.375Z,4.83
2023-03-12T00:18:57.042Z,4.67
2023-03-12T00:21:25.535Z,4.81
2023-03-12T00:23:53.895Z,5.03
2023-03-12T00:26:23.508Z,4.39
2023-03-12T00:28:51.986Z,4.43
2023-03-12T00:31:21.590Z,4.66
2023-03-12T00:33:50.484Z,5.06
2023-03-12T00:36:18.765Z,5.42
2023-03-12T00:38:46.778Z,5.06
2023-03-12T00:41:14.549Z,5.02
2023-03-12T00:43:43.722Z,5.11
2023-03-12T00:46:11.507Z,4.70
2023-03-12T00:48:39.427Z,4.71
2023-03-12T00:51:07.229Z,4.54
2023-03-12T00:53:34.948Z,4.82
2023-03-12T00:56:03.203Z,4.58
2023-03-12T00:58:30.920Z,4.58
2023-03-12T01:01:00.108Z,4.40
2023-03-12T01:03:27.904Z,4.69
2023-03-12T01:05:55.645Z,4.39
2023-03-12T01:08:24.345Z,4.44
2023-03-12T01:10:52.774Z,4.21
2023-03-12T01:13:21.040Z,4.27
2023-03-12T01:15:48.812Z,4.46
2023-03-12T01:18:17.938Z,4.30
2023-03-12T01:20:45.703Z,4.66
2023-03-12T01:23:13.510Z,4.37
2023-03-12T01:25:42.191Z,4.41
2023-03-12T01:28:09.947Z,4.13
2023-03-12T01:30:37.701Z,3.93
2023-03-12T01:33:05.682Z,4.04
2023-03-12T01:35:39.478Z,4.23
2023-03-12T01:38:07.527Z,4.48
2023-03-12T01:40:36.408Z,4.44
2023-03-12T01:43:25.537Z,4.29
2023-03-12T01:46:05.912Z,4.01
2023-03-12T01:48:39.344Z,3.92
2023-03-12T01:51:10.204Z,4.00
2023-03-12T01:53:39.489Z,4.38
2023-03-12T01:56:08.572Z,4.27
2023-03-12T01:58:38.909Z,4.19
2023-03-12T02:01:06.893Z,4.18
2023-03-12T02:03:36.455Z,3.89
2023-03-12T02:06:11.219Z,3.95
2023-03-12T02:08:42.506Z,3.89
2023-03-12T02:11:10.299Z,3.97
2023-03-12T02:13:38.462Z,4.30
2023-03-12T02:16:07.180Z,4.32
2023-03-12T02:18:36.156Z,4.25
2023-03-12T02:21:14.952Z,4.35
2023-03-12T02:23:48.909Z,4.09
2023-03-12T02:26:20.644Z,4.18
2023-03-12T02:28:50.074Z,3.79
2023-03-12T02:31:21.740Z,3.97
2023-03-12T02:33:49.546Z,3.77
2023-03-12T02:36:17.259Z,3.99
2023-03-12T02:38:47.155Z,4.41
2023-03-12T02:41:19.677Z,3.96
2023-03-12T02:43:50.468Z,4.08
2023-03-12T02:46:18.466Z,4.15
2023-03-12T02:48:46.206Z,3.87
2023-03-12T02:51:13.923Z,4.41
2023-03-12T02:53:41.644Z,3.99
2023-03-12T02:56:09.462Z,3.98
2023-03-12T02:58:38.555Z,3.82
2023-03-12T03:01:06.370Z,4.14
2023-03-12T03:03:34.109Z,3.80
2023-03-12T03:06:01.860Z,4.02
2023-03-12T03:08:29.572Z,4.20
2023-03-12T03:10:57.394Z,3.92
2023-03-12T03:13:25.089Z,3.85
2023-03-12T03:15:54.260Z,4.04
2023-03-12T03:18:21.997Z,4.07
2023-03-12T03:20:56.559Z,4.27
2023-03-12T03:23:24.828Z,3.99
2023-03-12T03:25:53.602Z,3.89
2023-03-12T03:28:21.430Z,4.08
2023-03-12T03:30:49.718Z,4.40
2023-03-12T03:33:18.838Z,4.02
2023-03-12T03:35:46.605Z,4.29
2023-03-12T03:38:14.319Z,4.05
2023-03-12T03:40:42.059Z,3.88
2023-03-12T03:43:09.790Z,3.99
2023-03-12T03:45:37.511Z,3.98
2023-03-12T03:48:06.119Z,4.27
2023-03-12T03:50:35.916Z,4.42
2023-03-12T03:53:03.637Z,4.15
2023-03-12T03:55:31.360Z,4.16
2023-03-12T03:57:59.096Z,4.08
2023-03-12T04:00:26.801Z,4.40
2023-03-12T04:02:55.457Z,4.24
2023-03-12T04:05:23.529Z,4.05
2023-03-12T04:07:53.412Z,4.30
2023-03-12T04:10:21.632Z,4.29
2023-03-12T04:12:49.618Z,4.07
2023-03-12T04:15:17.601Z,3.98
2023-03-12T04:17:45.513Z,4.01
2023-03-12T04:20:14.201Z,4.02
2023-03-12T04:22:42.285Z,3.98
2023-03-12T04:25:12.006Z,3.87
2023-03-12T04:27:39.802Z,3.67
2023-03-12T04:30:08.569Z,3.64
2023-03-12T04:32:36.326Z,3.59
2023-03-12T04:35:04.209Z,3.63
2023-03-12T04:37:34.329Z,3.35
2023-03-12T04:40:02.548Z,3.63
2023-03-12T04:42:31.655Z,3.81
2023-03-12T04:44:59.348Z,3.78
2023-03-12T04:47:27.082Z,3.80
2023-03-12T04:49:54.783Z,3.60
2023-03-12T04:52:22.527Z,3.52
2023-03-12T04:54:51.078Z,3.64
2023-03-12T04:57:18.834Z,3.54
2023-03-12T04:59:47.968Z,3.41
2023-03-12T05:02:15.752Z,3.40
2023-03-12T05:04:43.468Z,3.22
2023-03-12T05:07:11.228Z,3.41
2023-03-12T05:09:38.972Z,3.65
2023-03-12T05:12:07.521Z,3.35
2023-03-12T05:14:35.244Z,3.38
2023-03-12T05:17:05.272Z,3.52
2023-03-12T05:19:32.976Z,3.58
2023-03-12T05:22:00.685Z,3.40
2023-03-12T05:24:28.585Z,2.96
2023-03-12T05:26:56.288Z,3.10
2023-03-12T05:29:24.126Z,3.11
2023-03-12T05:31:51.962Z,3.19
2023-03-12T05:34:21.073Z,3.03
2023-03-12T05:36:48.761Z,2.85
2023-03-12T05:39:16.508Z,2.94
2023-03-12T05:41:44.205Z,2.90
2023-03-12T05:44:13.446Z,2.87
2023-03-12T05:46:41.177Z,3.13
2023-03-12T05:49:09.138Z,2.90
2023-03-12T05:51:38.516Z,2.88
2023-03-12T05:54:06.285Z,2.88
2023-03-12T05:56:33.974Z,2.84
2023-03-12T05:59:01.694Z,3.17
2023-03-12T06:01:31.743Z,3.40
2023-03-12T06:03:59.681Z,3.13
2023-03-12T06:06:27.525Z,3.30
2023-03-12T06:08:56.613Z,3.32
2023-03-12T06:11:24.311Z,3.24
2023-03-12T06:13:52.260Z,2.81
2023-03-12T06:16:21.960Z,3.26
2023-03-12T06:18:49.890Z,3.16
2023-03-12T06:21:19.955Z,3.35
2023-03-12T06:23:47.984Z,3.42
2023-03-12T06:26:17.583Z,3.57
2023-03-12T06:28:46.704Z,3.62
2023-03-12T06:31:15.017Z,3.56
2023-03-12T06:33:43.232Z,3.71
2023-03-12T06:36:11.859Z,3.97
2023-03-12T06:38:40.387Z,3.94
2023-03-12T06:41:10.117Z,3.96
2023-03-12T06:43:40.478Z,3.91
2023-03-12T06:46:10.169Z,4.06
2023-03-12T06:48:41.204Z,4.11
2023-03-12T06:51:09.629Z,4.02
2023-03-12T06:53:37.731Z,3.74
2023-03-12T06:56:07.632Z,3.79
2023-03-12T06:58:35.365Z,3.98
2023-03-12T07:01:05.265Z,4.01
2023-03-12T07:03:32.974Z,3.61
2023-03-12T07:06:00.789Z,3.54
2023-03-12T07:08:31.073Z,3.93
2023-03-12T07:11:02.235Z,4.29
2023-03-12T07:13:30.161Z,4.10
2023-03-12T07:15:58.046Z,4.37
2023-03-12T07:18:27.536Z,4.36
2023-03-12T07:20:55.398Z,4.45
2023-03-12T07:23:23.709Z,4.24
2023-03-12T07:25:52.040Z,4.38
2023-03-12T07:28:20.794Z,4.68
2023-03-12T07:30:50.731Z,4.58
2023-03-12T07:33:21.730Z,4.69
2023-03-12T07:35:51.918Z,4.63
2023-03-12T07:38:20.022Z,5.00
2023-03-12T07:40:51.951Z,4.76
2023-03-12T07:43:21.250Z,4.78
2023-03-12T07:45:49.809Z,5.11
2023-03-12T07:48:19.790Z,4.57
2023-03-12T07:50:48.613Z,5.06
2023-03-12T07:53:18.465Z,4.96
2023-03-12T07:55:48.222Z,5.66
2023-03-12T07:58:16.629Z,5.48
2023-03-12T08:00:44.939Z,5.45
2023-03-12T08:03:13.279Z,5.40
2023-03-12T08:05:41.567Z,5.28
2023-03-12T08:08:09.945Z,5.92
2023-03-12T08:10:39.164Z,6.36
2023-03-12T08:13:06.940Z,5.78
2023-03-12T08:15:34.927Z,6.62
2023-03-12T08:18:02.655Z,7.00
2023-03-12T08:20:30.641Z,7.02
2023-03-12T08:22:58.365Z,7.36
2023-03-12T08:25:26.104Z,7.52
2023-03-12T08:27:55.269Z,6.99
2023-03-12T08:30:23.177Z,7.56
2023-03-12T08:32:50.927Z,7.07
2023-03-12T08:35:18.922Z,7.57
2023-03-12T08:37:46.632Z,7.56
2023-03-12T08:40:15.209Z,7.56
2023-03-12T08:42:44.197Z,7.94
2023-03-12T08:45:15.761Z,7.76
2023-03-12T08:47:44.591Z,7.32
2023-03-12T08:50:14.691Z,7.19
2023-03-12T08:52:42.466Z,7.31
2023-03-12T08:55:11.181Z,8.15
2023-03-12T08:57:39.854Z,6.93
2023-03-12T09:00:14.884Z,8.10
2023-03-12T09:02:45.975Z,8.69
2023-03-12T09:05:14.112Z,8.01
2023-03-12T09:07:42.010Z,9.34
2023-03-12T09:10:10.521Z,9.78
2023-03-12T09:12:38.357Z,9.85
2023-03-12T09:15:07.360Z,10.13
2023-03-12T09:17:35.242Z,9.65
2023-03-12T09:20:06.980Z,9.87
2023-03-12T09:22:36.810Z,9.48
2023-03-12T09:25:04.774Z,9.60
2023-03-12T09:27:36.353Z,9.56
2023-03-12T09:30:04.193Z,10.14
2023-03-12T09:32:32.007Z,9.28
2023-03-12T09:34:59.736Z,10.04
2023-03-12T09:37:29.268Z,10.85
2023-03-12T09:39:57.171Z,9.97
2023-03-12T09:42:26.686Z,10.20
2023-03-12T09:44:58.321Z,9.84
2023-03-12T09:47:30.613Z,10.26
2023-03-12T09:50:04.275Z,9.57
2023-03-12T09:52:37.381Z,11.19
2023-03-12T09:55:15.037Z,11.11
2023-03-12T09:57:44.241Z,9.39
2023-03-12T10:00:16.205Z,9.58
2023-03-12T10:03:06.609Z,9.50
2023-03-12T10:05:39.444Z,10.60
2023-03-12T10:08:24.651Z,11.68
2023-03-12T10:11:04.068Z,11.78
2023-03-12T10:13:55.306Z,10.87
2023-03-12T10:16:35.456Z,11.24
2023-03-12T10:19:22.163Z,9.81
2023-03-12T10:21:56.849Z,10.10
2023-03-12T10:24:38.427Z,9.83
2023-03-12T10:27:13.264Z,10.01
2023-03-12T10:29:45.057Z,9.49
2023-03-12T10:32:17.563Z,10.10
2023-03-12T10:34:47.790Z,9.23
2023-03-12T10:37:21.727Z,9.38
2023-03-12T10:39:51.614Z,10.51
2023-03-12T10:42:22.399Z,9.59
2023-03-12T10:44:53.306Z,10.26
2023-03-12T10:47:34.979Z,9.23
2023-03-12T10:50:18.201Z,8.21
2023-03-12T10:52:47.309Z,9.68
2023-03-12T10:55:23.088Z,8.00
2023-03-12T10:57:51.845Z,8.80
2023-03-12T11:00:22.013Z,7.91
2023-03-12T11:02:58.813Z,8.13
2023-03-12T11:05:30.578Z,8.12
2023-03-12T11:08:00.110Z,7.72
2023-03-12T11:10:41.928Z,7.92
2023-03-12T11:13:33.564Z,7.75
2023-03-12T11:16:03.298Z,7.14
2023-03-12T11:18:33.635Z,8.11
2023-03-12T11:21:17.442Z,7.75
2023-03-12T11:23:48.375Z,7.50
2023-03-12T11:26:20.599Z,7.90
2023-03-12T11:28:50.838Z,7.89
2023-03-12T11:31:25.444Z,7.54
2023-03-12T11:33:55.843Z,7.66
2023-03-12T11:36:35.566Z,7.95
2023-03-12T11:39:12.174Z,8.08
2023-03-12T11:42:00.152Z,8.21
2023-03-12T11:44:32.475Z,7.95
2023-03-12T11:47:17.688Z,8.52
2023-03-12T11:50:17.975Z,7.85
2023-03-12T11:53:02.147Z,7.31
2023-03-12T11:55:40.910Z,7.44
2023-03-12T11:58:27.679Z,7.06
2023-03-12T12:01:03.615Z,7.93
2023-03-12T12:03:45.579Z,7.70
2023-03-12T12:06:23.280Z,8.08
2023-03-12T12:09:05.308Z,7.92
2023-03-12T12:11:47.049Z,8.34
2023-03-12T12:14:29.590Z,8.00
2023-03-12T12:17:10.886Z,7.88
2023-03-12T12:19:53.880Z,7.73
2023-03-12T12:22:35.956Z,7.82
2023-03-12T12:25:26.420Z,7.55
2023-03-12T12:28:08.718Z,7.52
2023-03-12T12:30:51.539Z,7.02
2023-03-12T12:33:29.533Z,7.72
2023-03-12T12:35:57.973Z,7.48
2023-03-12T12:38:30.902Z,7.49
2023-03-12T12:41:04.736Z,7.69
2023-03-12T12:43:36.972Z,7.04
2023-03-12T12:46:10.155Z,7.11
2023-03-12T12:48:41.732Z,6.62
2023-03-12T12:51:10.834Z,7.30
2023-03-12T12:53:45.843Z,6.66
2023-03-12T12:56:20.718Z,6.59
2023-03-12T12:59:25.146Z,7.13
2023-03-12T13:01:56.431Z,7.39
2023-03-12T13:04:28.344Z,7.40
2023-03-12T13:07:03.596Z,7.11
2023-03-12T13:09:43.424Z,7.32
2023-03-12T13:12:19.705Z,7.49
2023-03-12T13:14:49.251Z,7.05
2023-03-12T13:17:28.026Z,6.71
2023-03-12T13:20:01.960Z,7.10
2023-03-12T13:22:48.385Z,7.08
2023-03-12T13:25:27.831Z,7.31
2023-03-12T13:28:00.833Z,7.58
2023-03-12T13:30:47.528Z,6.87
2023-03-12T13:33:18.282Z,7.25
2023-03-12T13:36:02.977Z,6.89
2023-03-12T13:38:38.616Z,7.25
2023-03-12T13:41:09.713Z,7.40
2023-03-12T13:43:51.188Z,7.26
2023-03-12T13:46:42.667Z,7.39
2023-03-12T13:49:18.923Z,6.48
2023-03-12T13:51:58.903Z,6.44
2023-03-12T13:54:30.703Z,6.76
2023-03-12T13:57:04.304Z,6.69
2023-03-12T13:59:33.545Z,6.34
2023-03-12T14:02:06.922Z,6.46
2023-03-12T14:04:41.264Z,6.21
2023-03-12T14:07:28.761Z,6.87
2023-03-12T14:10:09.037Z,7.02
2023-03-12T14:12:45.553Z,6.81
2023-03-12T14:15:31.351Z,6.83
2023-03-12T14:18:03.494Z,7.04
2023-03-12T14:20:38.302Z,6.75
2023-03-12T14:23:10.187Z,6.44
2023-03-12T14:25:40.992Z,6.62
2023-03-12T14:28:14.700Z,6.29
2023-03-12T14:30:49.154Z,6.64
2023-03-12T14:33:17.793Z,5.95
2023-03-12T14:35:52.290Z,6.00
2023-03-12T14:38:27.282Z,5.31
2023-03-12T14:41:01.292Z,5.37
2023-03-12T14:43:30.912Z,5.63
2023-03-12T14:46:00.850Z,5.40
2023-03-12T14:48:30.836Z,5.32
2023-03-12T14:51:02.337Z,4.93
2023-03-12T14:53:31.752Z,4.74
2023-03-12T14:56:05.395Z,4.80
2023-03-12T14:58:34.289Z,5.37
2023-03-12T15:01:04.720Z,4.65
2023-03-12T15:03:37.691Z,5.12
2023-03-12T15:06:15.334Z,4.52
2023-03-12T15:08:44.890Z,4.58
2023-03-12T15:11:13.694Z,4.82
2023-03-12T15:13:41.524Z,4.60
2023-03-12T15:16:11.701Z,4.58
2023-03-12T15:18:39.716Z,4.52
2023-03-12T15:21:08.920Z,4.82
2023-03-12T15:23:38.631Z,5.10
2023-03-12T15:26:15.098Z,4.62
2023-03-12T15:28:43.866Z,4.54
2023-03-12T15:31:15.042Z,4.82
2023-03-12T15:33:44.348Z,4.96
2023-03-12T15:36:29.239Z,4.58
2023-03-12T15:39:01.178Z,4.76
2023-03-12T15:41:41.460Z,4.92
2023-03-12T15:44:19.525Z,4.82
2023-03-12T15:46:49.382Z,4.93
2023-03-12T15:49:24.061Z,4.42
2023-03-12T15:52:06.221Z,4.60
2023-03-12T15:54:35.153Z,4.65
2023-03-12T15:57:23.795Z,4.62
2023-03-12T16:00:09.538Z,5.95
2023-03-12T16:02:38.653Z,5.92
2023-03-12T16:05:08.182Z,5.07
2023-03-12T16:07:37.358Z,5.07
2023-03-12T16:10:05.975Z,5.11
2023-03-12T16:12:34.015Z,5.05
2023-03-12T16:15:01.712Z,5.15
2023-03-12T16:17:30.829Z,5.12
2023-03-12T16:19:58.761Z,5.43
2023-03-12T16:22:26.571Z,5.77
2023-03-12T16:24:55.664Z,5.06
2023-03-12T16:27:32.078Z,4.63
2023-03-12T16:30:00.750Z,4.66
2023-03-12T16:32:28.551Z,4.78
2023-03-12T16:34:56.779Z,4.63
2023-03-12T16:37:25.588Z,5.06
2023-03-12T16:39:53.354Z,4.66
2023-03-12T16:42:22.576Z,4.97
2023-03-12T16:44:50.379Z,4.47
2023-03-12T16:47:18.307Z,4.43
2023-03-12T16:49:46.038Z,4.63
2023-03-12T16:52:18.179Z,4.32
2023-03-12T16:54:45.922Z,4.90
2023-03-12T16:57:23.344Z,4.67
2023-03-12T16:59:52.556Z,4.66
2023-03-12T17:02:21.329Z,4.60
2023-03-12T17:04:51.053Z,4.35
2023-03-12T17:07:19.012Z,4.31
2023-03-12T17:09:46.727Z,4.65
2023-03-12T17:12:20.816Z,4.18
2023-03-12T17:14:49.737Z,3.87
2023-03-12T17:17:18.895Z,4.29
2023-03-12T17:19:46.599Z,3.89
2023-03-12T17:22:14.416Z,4.17
2023-03-12T17:24:42.259Z,3.87
2023-03-12T17:27:10.028Z,3.35
2023-03-12T17:29:37.859Z,3.57
2023-03-12T17:32:05.872Z,3.64
2023-03-12T17:34:37.155Z,3.57
2023-03-12T17:37:04.970Z,3.81
2023-03-12T17:39:32.807Z,3.90
2023-03-12T17:42:00.594Z,3.65
2023-03-12T17:44:32.665Z,3.32
2023-03-12T17:47:00.451Z,3.38
2023-03-12T17:49:28.832Z,3.18
2023-03-12T17:51:58.506Z,3.67
2023-03-12T17:54:26.308Z,3.28
2023-03-12T17:56:54.027Z,3.23
2023-03-12T17:59:21.831Z,3.48
2023-03-12T18:01:49.553Z,3.11
2023-03-12T18:04:17.318Z,3.45
2023-03-12T18:06:45.061Z,2.79
2023-03-12T18:09:14.306Z,3.40
2023-03-12T18:11:42.170Z,3.08
2023-03-12T18:14:09.892Z,3.17
2023-03-12T18:16:37.804Z,2.81
2023-03-12T18:19:05.736Z,2.98
2023-03-12T18:21:33.506Z,3.10
2023-03-12T18:24:11.819Z,2.87
2023-03-12T18:26:42.555Z,3.24
2023-03-12T18:29:10.243Z,2.83
2023-03-12T18:31:38.204Z,2.33
2023-03-12T18:34:05.976Z,2.58
2023-03-12T18:36:33.713Z,2.89
2023-03-12T18:39:04.646Z,3.18
2023-03-12T18:41:33.053Z,2.80
2023-03-12T18:44:02.350Z,2.77
2023-03-12T18:46:30.494Z,2.51
2023-03-12T18:48:58.321Z,2.48
2023-03-12T18:51:26.030Z,2.61
2023-03-12T18:53:53.737Z,2.60
2023-03-12T18:56:21.560Z,3.20
2023-03-12T18:58:49.331Z,2.88
2023-03-12T19:01:18.726Z,2.89
2023-03-12T19:03:46.697Z,2.78
2023-03-12T19:06:16.464Z,3.31
2023-03-12T19:08:44.780Z,3.07
2023-03-12T19:11:14.263Z,2.45
2023-03-12T19:13:42.612Z,2.75
2023-03-12T19:16:12.236Z,2.77
2023-03-12T19:18:41.456Z,2.82
2023-03-12T19:21:09.271Z,2.58
2023-03-12T19:23:37.035Z,2.97
2023-03-12T19:26:05.108Z,2.71
2023-03-12T19:28:33.320Z,2.97
2023-03-12T19:31:01.783Z,2.76
2023-03-12T19:33:29.663Z,3.09
2023-03-12T19:35:58.944Z,2.89
2023-03-12T19:38:26.902Z,3.07
2023-03-12T19:40:56.828Z,3.16
2023-03-12T19:43:25.184Z,3.72
2023-03-12T19:45:54.804Z,3.39
2023-03-12T19:48:23.200Z,2.99
2023-03-12T19:50:51.577Z,2.98
2023-03-12T19:53:20.737Z,3.20
2023-03-12T19:55:49.264Z,3.09
2023-03-12T19:58:17.906Z,3.66
2023-03-12T20:00:46.114Z,3.43
2023-03-12T20:03:13.909Z,3.40
2023-03-12T20:05:44.226Z,3.57
2023-03-12T20:08:12.427Z,3.36
2023-03-12T20:10:41.542Z,3.58
2023-03-12T20:13:12.914Z,3.97
2023-03-12T20:15:40.806Z,4.17
2023-03-12T20:18:08.518Z,3.63
2023-03-12T20:20:36.328Z,3.79
2023-03-12T20:23:04.057Z,3.58
2023-03-12T20:25:31.836Z,3.68
2023-03-12T20:28:01.073Z,4.20
2023-03-12T20:30:28.849Z,4.30
2023-03-12T20:32:56.616Z,4.25
2023-03-12T20:35:24.532Z,4.23
2023-03-12T20:37:52.315Z,4.18
2023-03-12T20:40:20.288Z,3.95
2023-03-12T20:42:47.986Z,4.07
2023-03-12T20:45:17.186Z,4.41
2023-03-12T20:47:44.954Z,4.57
2023-03-12T20:50:12.887Z,4.59
2023-03-12T20:52:40.638Z,4.58
2023-03-12T20:55:09.275Z,4.01
2023-03-12T20:57:36.988Z,4.12
2023-03-12T21:00:05.545Z,3.96
2023-03-12T21:02:35.121Z,4.34
2023-03-12T21:05:02.937Z,4.74
2023-03-12T21:07:30.687Z,4.50
2023-03-12T21:09:58.434Z,4.62
2023-03-12T21:12:26.243Z,4.77
2023-03-12T21:14:54.018Z,4.90
2023-03-12T21:17:21.971Z,4.71
2023-03-12T21:19:51.030Z,4.43
2023-03-12T21:22:18.763Z,4.41
2023-03-12T21:24:46.749Z,4.82
2023-03-12T21:27:14.488Z,4.94
2023-03-12T21:29:42.201Z,4.56
2023-03-12T21:32:09.921Z,5.04
2023-03-12T21:34:38.276Z,4.77
2023-03-12T21:37:07.382Z,4.86
2023-03-12T21:39:35.565Z,5.08
2023-03-12T21:42:03.300Z,5.43
2023-03-12T21:44:31.112Z,5.04
2023-03-12T21:46:58.885Z,5.35
2023-03-12T21:49:26.646Z,5.41
2023-03-12T21:51:54.493Z,5.51
2023-03-12T21:54:23.605Z,5.47
2023-03-12T21:56:51.355Z,5.58
2023-03-12T21:59:19.097Z,5.66
2023-03-12T22:01:46.969Z,5.71
2023-03-12T22:04:14.748Z,5.83
2023-03-12T22:06:42.842Z,5.79
2023-03-12T22:09:10.633Z,5.55
2023-03-12T22:11:40.097Z,5.79
2023-03-12T22:14:08.092Z,5.73
2023-03-12T22:16:35.854Z,5.37
2023-03-12T22:19:03.570Z,5.60
2023-03-12T22:21:31.418Z,5.64
2023-03-12T22:23:59.133Z,5.81
2023-03-12T22:26:26.926Z,5.87
2023-03-12T22:28:57.944Z,5.89
2023-03-12T22:31:27.264Z,6.07
2023-03-12T22:33:55.484Z,5.83
2023-03-12T22:36:23.992Z,6.34
2023-03-12T22:38:52.305Z,6.10
2023-03-12T22:41:22.352Z,6.60
2023-03-12T22:43:51.414Z,6.42
2023-03-12T22:46:22.490Z,6.39
2023-03-12T22:48:54.405Z,6.77
2023-03-12T22:51:22.467Z,6.86
2023-03-12T22:53:50.199Z,6.56
2023-03-12T22:56:17.978Z,6.36
2023-03-12T22:58:45.699Z,6.42
2023-03-12T23:01:15.555Z,6.90
2023-03-12T23:03:46.409Z,6.86
2023-03-12T23:06:16.490Z,6.86
2023-03-12T23:08:47.127Z,6.75
2023-03-12T23:11:15.789Z,6.81
2023-03-12T23:13:45.512Z,6.99
2023-03-12T23:16:15.273Z,6.78
2023-03-12T23:18:44.885Z,6.80
2023-03-12T23:21:15.208Z,7.11
2023-03-12T23:23:43.964Z,7.28
2023-03-12T23:26:14.914Z,7.08
2023-03-12T23:28:43.108Z,7.57
2023-03-12T23:31:11.363Z,7.35
2023-03-12T23:33:39.645Z,7.38
2023-03-12T23:36:11.690Z,7.24
2023-03-12T23:38:39.502Z,6.94
2023-03-12T23:41:10.197Z,7.70
2023-03-12T23:43:37.910Z,7.13
2023-03-12T23:46:07.332Z,7.00
2023-03-12T23:48:36.970Z,6.89
2023-03-12T23:51:05.696Z,6.83
2023-03-12T23:53:35.090Z,7.01
2023-03-12T23:56:05.259Z,7.07
2023-03-12T23:58:33.566Z,7.25
